Time;durP1;ratioP1;P1;durP2;ratioP2;P2;SDS_P1;SDS_P2;PMS_P1;PMS_P2;Temp;Humidity;BMP_temperature;BMP_pressure;BME280_temperature;BME280_humidity;BME280_pressure;Samples;Min_cycle;Max_cycle;Signal;HPM_P1;HPM_P2
2023/02/20 00:00:40;;;;;;;5.40;2.05;;;;;;;6.03;73.35;97158.34;2098639;28;20044;-76
2023/02/20 00:01:49;;;;;;;4.57;1.45;;;;;;;6.03;73.21;97155.75;2107664;28;20088;-77
2023/02/20 00:02:50;;;;;;;5.13;1.77;;;;;;;6.02;73.92;97160.97;2107553;28;20074;-76
2023/02/20 00:03:51;;;;;;;4.20;1.65;;;;;;;6.02;73.56;97158.38;2107578;28;20035;-77
2023/02/20 00:04:52;;;;;;;3.38;1.35;;;;;;;6.01;73.30;97157.50;2107702;28;20062;-76
2023/02/20 00:05:53;;;;;;;4.07;1.63;;;;;;;5.96;74.59;97155.00;2107582;28;20039;-76
2023/02/20 00:06:55;;;;;;;6.60;1.80;;;;;;;5.97;73.90;97151.53;2107508;28;20039;-76
2023/02/20 00:07:56;;;;;;;4.38;1.58;;;;;;;5.99;73.69;97166.13;2107795;28;20047;-76
2023/02/20 00:08:57;;;;;;;6.03;1.70;;;;;;;5.99;74.20;97161.84;2107517;28;20051;-77
2023/02/20 00:09:58;;;;;;;3.83;1.58;;;;;;;5.96;74.63;97162.72;2098562;28;20032;-76
2023/02/20 00:10:59;;;;;;;4.75;1.77;;;;;;;5.96;73.84;97161.84;2098403;28;20413;-76
2023/02/20 00:12:00;;;;;;;4.65;1.80;;;;;;;5.96;74.10;97160.16;2107171;28;20028;-76
2023/02/20 00:13:01;;;;;;;5.88;1.88;;;;;;;5.99;73.96;97167.00;2107499;28;20085;-76
2023/02/20 00:14:02;;;;;;;2.22;1.05;;;;;;;6.00;73.42;97152.38;2107522;28;20043;-76
2023/02/20 00:15:03;;;;;;;3.25;1.45;;;;;;;6.00;73.67;97162.69;2107488;28;20040;-76
2023/02/20 00:16:05;;;;;;;6.05;1.80;;;;;;;6.01;74.19;97167.81;2107507;28;20375;-77
2023/02/20 00:17:06;;;;;;;4.47;1.98;;;;;;;5.96;74.54;97157.56;2098257;28;20044;-76
2023/02/20 00:18:07;;;;;;;3.83;1.50;;;;;;;5.94;74.36;97159.31;2098413;28;20036;-76
2023/02/20 00:19:08;;;;;;;7.35;2.00;;;;;;;5.93;74.55;97162.75;2107681;28;20055;-76
2023/02/20 00:20:10;;;;;;;6.50;1.70;;;;;;;5.94;74.29;97161.03;2107300;28;20063;-76
2023/02/20 00:21:11;;;;;;;5.85;1.55;;;;;;;5.91;74.98;97151.56;2107478;28;20047;-76
2023/02/20 00:22:12;;;;;;;4.05;1.60;;;;;;;5.90;74.63;97149.00;2107496;28;20047;-76
2023/02/20 00:23:13;;;;;;;3.33;1.58;;;;;;;5.89;74.81;97152.47;2107330;28;20032;-77
2023/02/20 00:24:15;;;;;;;3.83;1.67;;;;;;;5.89;75.33;97148.16;2107363;28;20040;-77
2023/02/20 00:25:17;;;;;;;4.88;1.80;;;;;;;5.87;74.85;97149.03;2107591;28;20069;-76
2023/02/20 00:26:18;;;;;;;4.43;1.80;;;;;;;5.88;74.67;97148.16;2107331;28;20032;-76
2023/02/20 00:27:19;;;;;;;4.60;1.60;;;;;;;5.89;74.33;97155.88;2107350;28;20436;-77
2023/02/20 00:28:20;;;;;;;4.60;1.38;;;;;;;5.88;74.80;97145.56;2090261;28;20033;-77
2023/02/20 00:29:22;;;;;;;3.22;1.63;;;;;;;5.87;74.66;97147.31;2082030;28;20064;-76
2023/02/20 00:30:23;;;;;;;3.38;1.98;;;;;;;5.86;74.73;97150.75;2090122;28;20052;-76
2023/02/20 00:31:24;;;;;;;4.68;1.85;;;;;;;5.93;74.62;97146.38;2090277;28;20041;-77
2023/02/20 00:32:25;;;;;;;3.85;1.55;;;;;;;5.93;74.57;97139.56;2098347;28;20036;-77
2023/02/20 00:33:27;;;;;;;4.70;1.50;;;;;;;5.88;74.82;97143.88;2107200;28;20129;-76
2023/02/20 00:34:28;;;;;;;3.83;1.50;;;;;;;5.89;74.79;97150.72;2107302;28;20437;-77
2023/02/20 00:35:29;;;;;;;5.05;1.90;;;;;;;5.86;75.29;97148.19;2107331;28;20040;-76
2023/02/20 00:36:30;;;;;;;4.03;1.80;;;;;;;5.85;74.96;97146.44;2107332;28;20035;-76
2023/02/20 00:37:31;;;;;;;5.47;1.75;;;;;;;5.82;75.72;97141.34;2098488;28;20051;-77
2023/02/20 00:38:32;;;;;;;2.95;1.60;;;;;;;5.86;74.68;97140.44;2090205;28;20041;-77
2023/02/20 00:39:36;;;;;;;3.50;1.42;;;;;;;5.86;74.85;97143.03;2098755;28;20488;-77
2023/02/20 00:40:37;;;;;;;3.40;1.80;;;;;;;5.87;74.96;97142.16;2098437;28;20032;-77
2023/02/20 00:41:38;;;;;;;6.63;1.88;;;;;;;5.88;75.30;97140.41;2098292;28;20138;-77
2023/02/20 00:42:39;;;;;;;3.97;1.90;;;;;;;5.88;74.81;97146.44;2107287;28;20043;-77
2023/02/20 00:43:40;;;;;;;5.57;1.75;;;;;;;5.92;74.84;97147.25;2107282;28;20028;-77
2023/02/20 00:44:41;;;;;;;6.10;1.75;;;;;;;5.89;74.60;97139.56;2090104;28;20036;-77
2023/02/20 00:45:42;;;;;;;4.00;1.55;;;;;;;5.88;74.83;97149.03;2090022;28;20064;-77
2023/02/20 00:46:44;;;;;;;4.55;1.73;;;;;;;5.90;75.19;97151.56;2107436;28;20043;-77
2023/02/20 00:47:46;;;;;;;1.85;1.38;;;;;;;5.89;74.67;97150.72;2098147;28;20047;-77
2023/02/20 00:48:49;;;;;;;5.93;1.95;;;;;;;5.89;75.05;97150.72;2098235;28;20052;-77
2023/02/20 00:50:09;;;;;;;4.07;1.55;;;;;;;5.88;75.39;97156.75;2107480;28;20051;-77
2023/02/20 00:51:10;;;;;;;5.65;1.80;;;;;;;5.86;75.13;97155.91;2107185;28;20379;-77
2023/02/20 00:52:11;;;;;;;3.63;1.70;;;;;;;5.88;75.19;97156.75;2098126;28;20040;-77
2023/02/20 00:53:12;;;;;;;5.82;1.80;;;;;;;5.88;75.51;97161.91;2098365;28;20041;-77
2023/02/20 00:54:14;;;;;;;4.43;1.50;;;;;;;5.87;75.35;97152.47;2098095;28;20195;-77
2023/02/20 00:55:15;;;;;;;5.45;1.90;;;;;;;5.88;74.98;97159.34;2089881;28;20044;-77
2023/02/20 00:56:16;;;;;;;4.80;1.60;;;;;;;5.87;75.48;97152.47;2089996;28;20561;-77
2023/02/20 00:57:17;;;;;;;5.60;1.98;;;;;;;5.86;75.22;97158.50;2107160;28;20044;-78
2023/02/20 00:58:18;;;;;;;5.32;2.15;;;;;;;5.84;76.00;97162.81;2107053;28;20052;-77
2023/02/20 00:59:19;;;;;;;4.30;2.03;;;;;;;5.84;75.54;97160.22;2107165;28;20391;-77
2023/02/20 01:00:26;;;;;;;4.57;1.85;;;;;;;5.84;75.59;97175.69;2098171;28;20032;-77
2023/02/20 01:01:27;;;;;;;2.97;1.52;;;;;;;5.87;75.54;97172.22;2082165;28;20048;-77
2023/02/20 01:02:28;;;;;;;5.47;2.22;;;;;;;5.85;75.70;97172.25;2081731;28;20174;-76
2023/02/20 01:03:29;;;;;;;4.15;2.10;;;;;;;5.87;75.35;97167.94;2097951;28;20515;-76
2023/02/20 01:04:30;;;;;;;5.70;2.30;;;;;;;5.85;75.55;97164.50;2106968;28;20028;-76
2023/02/20 01:05:31;;;;;;;3.70;2.13;;;;;;;5.85;75.25;97164.50;2107056;28;20478;-76
2023/02/20 01:06:32;;;;;;;4.60;1.85;;;;;;;5.86;75.60;97167.97;2106972;28;20044;-77
2023/02/20 01:07:34;;;;;;;5.45;1.60;;;;;;;5.85;75.55;97167.06;2098114;28;20204;-77
2023/02/20 01:08:35;;;;;;;4.35;1.90;;;;;;;5.85;75.83;97172.25;2098044;28;20040;-77
2023/02/20 01:09:37;;;;;;;5.35;1.98;;;;;;;5.88;75.42;97172.22;2098010;28;20045;-77
2023/02/20 01:10:38;;;;;;;3.28;1.70;;;;;;;5.88;75.73;97163.63;2098099;28;20159;-76
2023/02/20 01:11:43;;;;;;;7.45;1.80;;;;;;;5.82;75.81;97154.22;2106944;28;20036;-76
2023/02/20 01:12:44;;;;;;;4.97;1.90;;;;;;;5.86;75.84;97162.81;2098056;28;20424;-77
2023/02/20 01:13:47;;;;;;;8.15;2.38;;;;;;;5.83;75.63;97155.94;2089998;28;20101;-76
2023/02/20 01:14:49;;;;;;;9.07;2.10;;;;;;;5.84;75.76;97157.66;2098120;28;20044;-76
2023/02/20 01:15:50;;;;;;;3.97;1.70;;;;;;;5.84;76.21;97159.38;2089922;28;20489;-76
2023/02/20 01:16:51;;;;;;;3.85;2.03;;;;;;;5.81;76.47;97154.25;2098065;28;20029;-76
2023/02/20 01:17:52;;;;;;;5.13;2.03;;;;;;;5.83;76.24;97158.53;2098092;28;20048;-78
2023/02/20 01:18:54;;;;;;;5.75;2.10;;;;;;;5.85;75.59;97166.22;2089696;28;20396;-78
2023/02/20 01:19:55;;;;;;;6.40;2.05;;;;;;;5.83;76.04;97161.09;2097826;28;20053;-77
2023/02/20 01:20:56;;;;;;;5.25;2.15;;;;;;;5.77;76.44;97156.00;2089591;28;20056;-77
2023/02/20 01:21:57;;;;;;;5.63;2.05;;;;;;;5.82;75.74;97154.22;2089631;28;20495;-77
2023/02/20 01:22:58;;;;;;;4.97;1.80;;;;;;;5.83;76.25;97158.53;2089104;28;20080;-77
2023/02/20 01:23:59;;;;;;;5.63;2.53;;;;;;;5.83;75.98;97155.09;2089187;28;20400;-77
2023/02/20 01:25:00;;;;;;;5.97;1.83;;;;;;;5.80;76.36;97163.72;2089945;28;20037;-78
2023/02/20 01:26:02;;;;;;;4.85;2.17;;;;;;;5.82;76.09;97161.97;2097944;28;20051;-77
2023/02/20 01:27:03;;;;;;;5.47;1.92;;;;;;;5.82;76.08;97164.53;2098499;28;20063;-78
2023/02/20 01:28:04;;;;;;;6.57;2.40;;;;;;;5.86;75.77;97160.22;2097742;28;20131;-77
2023/02/20 01:29:05;;;;;;;7.32;2.60;;;;;;;5.84;76.42;97156.81;2097859;28;20040;-77
2023/02/20 01:30:07;;;;;;;6.93;2.30;;;;;;;5.84;76.35;97154.22;2097680;28;20470;-77
2023/02/20 01:31:10;;;;;;;7.38;2.30;;;;;;;5.82;76.71;97153.38;2097825;28;20048;-77
2023/02/20 01:32:11;;;;;;;6.53;2.25;;;;;;;5.81;76.46;97146.53;2081640;28;20037;-77
2023/02/20 01:33:12;;;;;;;4.45;2.13;;;;;;;5.80;76.28;97155.09;2089584;28;20041;-77
2023/02/20 01:34:14;;;;;;;6.13;2.55;;;;;;;5.81;76.21;97155.09;2097850;28;20044;-78
2023/02/20 01:35:15;;;;;;;6.60;2.33;;;;;;;5.84;75.89;97156.81;2098094;28;20428;-77
2023/02/20 01:36:16;;;;;;;5.03;2.05;;;;;;;5.81;76.31;97141.38;2098766;28;20041;-77
2023/02/20 01:37:18;;;;;;;5.15;2.00;;;;;;;5.83;76.68;97155.94;2098369;28;20452;-77
2023/02/20 01:38:20;;;;;;;5.18;2.17;;;;;;;5.82;76.54;97158.53;2097804;28;20048;-77
2023/02/20 01:39:23;;;;;;;3.17;2.08;;;;;;;5.84;76.15;97157.66;2098217;28;20047;-77
2023/02/20 01:40:25;;;;;;;6.10;2.00;;;;;;;5.82;76.49;97151.66;2097793;28;20429;-77
2023/02/20 01:41:27;;;;;;;5.95;2.10;;;;;;;5.75;77.04;97143.13;2090024;28;20040;-78
2023/02/20 01:42:30;;;;;;;4.57;2.03;;;;;;;5.79;76.78;97138.78;2081332;28;20045;-77
2023/02/20 01:43:31;;;;;;;6.03;2.17;;;;;;;5.83;75.97;97145.63;2081898;28;20400;-77
2023/02/20 01:44:34;;;;;;;5.43;2.20;;;;;;;5.80;76.57;97143.09;2097721;28;20036;-77
2023/02/20 01:45:36;;;;;;;6.28;2.05;;;;;;;5.77;76.66;97137.09;2089759;28;20056;-77
2023/02/20 01:46:41;;;;;;;5.10;2.47;;;;;;;5.79;76.69;97136.22;2097686;28;20036;-77
2023/02/20 01:47:42;;;;;;;6.03;1.95;;;;;;;5.79;76.24;97132.78;2098536;28;20036;-77
2023/02/20 01:48:43;;;;;;;6.38;1.98;;;;;;;5.80;76.14;97130.22;2097869;28;20055;-77
2023/02/20 01:49:55;;;;;;;6.45;1.95;;;;;;;5.81;76.41;97133.63;2097787;28;20527;-78
2023/02/20 01:50:57;;;;;;;4.65;1.98;;;;;;;5.83;76.48;97124.16;2081518;28;20068;-77
2023/02/20 01:52:21;;;;;;;4.70;2.25;;;;;;;5.76;76.55;97120.78;2074812;28;20042;-77
2023/02/20 01:53:22;;;;;;;4.63;2.10;;;;;;;5.75;75.88;97117.38;2087532;28;20472;-78
2023/02/20 01:54:23;;;;;;;5.78;2.28;;;;;;;5.82;76.74;97132.75;2097115;28;20044;-77
2023/02/20 01:55:27;;;;;;;5.35;2.17;;;;;;;5.80;76.97;97139.63;2089505;28;20041;-77
2023/02/20 01:56:29;;;;;;;9.90;2.30;;;;;;;5.80;76.41;97131.91;2097978;28;20036;-77
2023/02/20 01:57:31;;;;;;;6.07;2.38;;;;;;;5.73;76.57;97120.81;2089314;28;20049;-77
2023/02/20 01:58:45;;;;;;;5.47;2.22;;;;;;;5.72;75.84;97106.22;2065073;28;20042;-76
2023/02/20 01:59:46;;;;;;;4.07;1.95;;;;;;;5.80;76.07;97126.75;2062347;28;20054;-77
2023/02/20 02:00:48;;;;;;;4.15;2.10;;;;;;;5.80;76.27;97126.75;2073274;28;20045;-77
2023/02/20 02:01:49;;;;;;;7.75;2.65;;;;;;;5.81;76.40;97128.47;2097676;28;20048;-77
2023/02/20 02:03:05;;;;;;;5.75;2.10;;;;;;;5.74;76.78;97133.69;2089441;28;20420;-77
2023/02/20 02:04:07;;;;;;;3.95;1.98;;;;;;;5.83;76.04;97140.50;2076886;28;20053;-77
2023/02/20 02:05:08;;;;;;;4.22;1.98;;;;;;;5.86;75.44;97145.59;2090209;28;20500;-77
2023/02/20 02:06:10;;;;;;;7.10;2.42;;;;;;;5.82;75.73;97141.34;2098272;28;20032;-77
2023/02/20 02:07:14;;;;;;;7.78;2.50;;;;;;;5.82;75.89;97138.75;2089560;28;20392;-77
2023/02/20 02:08:15;;;;;;;3.72;2.15;;;;;;;5.81;76.15;97131.91;2073840;28;20046;-77
2023/02/20 02:09:41;;;;;;;4.85;1.98;;;;;;;5.81;76.36;97131.06;2081273;28;20052;-77
2023/02/20 02:10:56;;;;;;;4.55;2.40;;;;;;;5.75;76.32;97130.25;2093634;28;20035;-77
2023/02/20 02:11:57;;;;;;;4.90;2.28;;;;;;;5.77;76.50;97134.53;2081606;28;20050;-74
2023/02/20 02:12:58;;;;;;;6.72;2.38;;;;;;;5.77;75.99;97142.25;2065933;28;20046;-78
2023/02/20 02:14:00;;;;;;;3.78;2.20;;;;;;;5.81;76.06;97142.22;2081218;28;20045;-77
2023/02/20 02:15:01;;;;;;;3.67;2.08;;;;;;;5.83;76.28;97137.06;2073232;28;20056;-78
2023/02/20 02:16:28;;;;;;;5.88;2.08;;;;;;;5.80;75.94;97131.91;2081173;28;20056;-77
2023/02/20 02:17:43;;;;;;;4.00;2.05;;;;;;;5.64;77.07;97113.16;2097880;28;20040;-77
2023/02/20 02:19:19;;;;;;;4.93;2.10;;;;;;;5.75;76.46;97127.66;2097642;28;20036;-78
2023/02/20 02:21:03;;;;;;;4.75;2.40;;;;;;;5.74;76.45;97119.94;2093734;28;20048;-77
2023/02/20 02:22:34;;;;;;;5.95;2.10;;;;;;;5.76;76.08;97118.22;2095137;28;20527;-78
2023/02/20 02:23:59;;;;;;;6.32;2.38;;;;;;;5.75;76.23;97116.50;2087755;28;20041;-78
2023/02/20 02:25:18;;;;;;;8.85;2.80;;;;;;;5.74;76.35;97125.09;2092828;28;20048;-77
2023/02/20 02:26:56;;;;;;;6.55;2.53;;;;;;;5.76;76.24;97118.22;2097567;28;20044;-77
2023/02/20 02:28:18;;;;;;;3.97;2.10;;;;;;;5.74;76.94;97114.78;2094571;28;20044;-75
2023/02/20 02:29:37;;;;;;;5.05;2.25;;;;;;;5.71;76.99;97120.81;2092065;28;20712;-75
2023/02/20 02:31:00;;;;;;;4.80;1.90;;;;;;;5.71;76.63;97115.66;2097930;28;20044;-76
2023/02/20 02:32:23;;;;;;;5.28;1.77;;;;;;;5.73;76.38;97111.34;2097500;28;20044;-77
2023/02/20 02:33:30;;;;;;;5.82;2.35;;;;;;;5.72;76.31;97108.78;2084069;28;20040;-75
2023/02/20 02:34:52;;;;;;;4.32;2.10;;;;;;;5.78;75.87;97100.16;2084555;28;20037;-77
2023/02/20 02:36:08;;;;;;;6.00;2.47;;;;;;;5.74;76.43;97104.47;2100680;28;20036;-75
2023/02/20 02:37:38;;;;;;;5.32;2.10;;;;;;;5.71;76.32;97113.09;2092075;28;20045;-75
2023/02/20 02:38:42;;;;;;;4.72;2.35;;;;;;;5.72;76.66;97117.41;2092176;28;20354;-76
2023/02/20 02:39:50;;;;;;;5.30;1.90;;;;;;;5.65;76.84;97102.84;2100279;28;20029;-75
2023/02/20 02:41:11;;;;;;;4.78;2.40;;;;;;;5.67;77.26;97115.75;2092210;28;20428;-75
2023/02/20 02:42:30;;;;;;;6.05;2.20;;;;;;;5.60;76.96;97117.50;2095127;28;20508;-74
2023/02/20 02:43:44;;;;;;;6.63;2.50;;;;;;;5.62;77.46;97122.66;2100897;28;20102;-75
2023/02/20 02:45:19;;;;;;;7.50;2.85;;;;;;;5.59;77.18;97122.69;2083748;28;20060;-74
2023/02/20 02:46:44;;;;;;;8.20;2.47;;;;;;;5.60;77.20;97116.66;2069447;28;20041;-75
2023/02/20 02:47:49;;;;;;;6.75;2.20;;;;;;;5.59;76.97;97107.22;2095168;28;20056;-75
2023/02/20 02:48:53;;;;;;;5.35;2.50;;;;;;;5.53;76.95;97101.25;2087026;28;20045;-75
2023/02/20 02:49:57;;;;;;;6.57;2.47;;;;;;;5.49;77.37;97097.00;2076189;28;20577;-75
2023/02/20 02:51:02;;;;;;;5.63;2.28;;;;;;;5.48;77.13;97103.03;2077173;28;20046;-75
2023/02/20 02:52:03;;;;;;;9.32;2.85;;;;;;;5.34;77.46;97083.41;2084433;28;20461;-75
2023/02/20 02:53:06;;;;;;;7.53;2.42;;;;;;;5.32;77.72;97096.31;2083967;28;20393;-74
2023/02/20 02:54:18;;;;;;;7.93;2.33;;;;;;;5.34;77.68;97099.72;2075786;28;20433;-75
2023/02/20 02:55:30;;;;;;;5.97;2.53;;;;;;;5.24;78.11;97093.81;2080038;28;20042;-75
2023/02/20 02:56:39;;;;;;;7.43;2.05;;;;;;;5.12;78.48;97086.16;2093377;28;20063;-77
2023/02/20 02:57:40;;;;;;;4.80;2.03;;;;;;;5.27;78.24;97092.91;2084682;28;20048;-75
2023/02/20 02:58:41;;;;;;;5.05;2.28;;;;;;;5.24;77.89;97090.38;2092127;28;20040;-75
2023/02/20 02:59:43;;;;;;;6.50;2.85;;;;;;;5.18;78.39;97098.97;2100228;28;20496;-74
2023/02/20 03:00:56;;;;;;;7.70;2.45;;;;;;;5.12;79.25;97103.34;2083704;28;20045;-74
2023/02/20 03:02:02;;;;;;;9.60;2.55;;;;;;;5.07;79.20;97100.78;2079279;28;20044;-75
2023/02/20 03:03:27;;;;;;;7.43;2.60;;;;;;;5.08;79.27;97108.53;2094238;28;20052;-76
2023/02/20 03:04:28;;;;;;;5.43;2.05;;;;;;;5.05;79.03;97103.41;2086825;28;20029;-76
2023/02/20 03:05:38;;;;;;;6.72;2.63;;;;;;;5.10;79.11;97108.50;2076711;28;20037;-76
2023/02/20 03:06:42;;;;;;;5.43;2.50;;;;;;;5.08;79.20;97112.81;2085033;28;20037;-76
2023/02/20 03:07:43;;;;;;;5.18;2.60;;;;;;;4.99;79.31;97113.72;2084995;28;20041;-76
2023/02/20 03:08:48;;;;;;;6.35;2.50;;;;;;;4.98;79.32;97100.88;2083749;28;20084;-76
2023/02/20 03:09:52;;;;;;;7.43;2.53;;;;;;;4.99;79.66;97105.16;2092324;28;20428;-76
2023/02/20 03:10:54;;;;;;;8.38;2.35;;;;;;;4.97;79.21;97105.19;2100341;28;20047;-77
2023/02/20 03:11:58;;;;;;;6.10;2.30;;;;;;;4.88;79.53;97089.78;2100309;28;20040;-76
2023/02/20 03:13:02;;;;;;;4.75;2.35;;;;;;;4.88;79.76;97104.38;2091854;28;20076;-75
2023/02/20 03:15:34;;;;;;;8.68;2.50;;;;;;;4.93;79.58;97095.75;2081681;28;20373;-76
2023/02/20 03:16:45;;;;;;;7.15;2.50;;;;;;;5.00;79.47;97102.59;2080545;28;20041;-75
2023/02/20 03:17:52;;;;;;;5.28;2.33;;;;;;;4.95;79.26;97103.47;2086495;28;20053;-75
2023/02/20 03:18:53;;;;;;;4.93;2.20;;;;;;;4.95;79.18;97106.91;2092597;28;20049;-75
2023/02/20 03:19:56;;;;;;;6.00;2.60;;;;;;;4.93;79.38;97102.63;2091689;28;20473;-74
2023/02/20 03:20:58;;;;;;;5.03;2.63;;;;;;;4.92;79.37;97098.34;2075887;28;20053;-77
2023/02/20 03:22:00;;;;;;;7.72;3.08;;;;;;;4.86;79.23;97091.50;2067896;28;20045;-75
2023/02/20 03:23:03;;;;;;;5.88;1.95;;;;;;;4.99;79.31;97105.16;2075781;28;20184;-77
2023/02/20 03:24:04;;;;;;;7.13;2.75;;;;;;;4.95;79.41;97096.59;2075837;28;20517;-75
2023/02/20 03:25:15;;;;;;;5.53;2.50;;;;;;;4.98;79.10;97098.31;2083652;28;20049;-75
2023/02/20 03:26:21;;;;;;;4.45;2.10;;;;;;;4.96;78.61;97098.31;2093019;28;20134;-74
2023/02/20 03:27:37;;;;;;;3.22;1.60;;;;;;;5.07;78.43;97101.66;2084428;28;20048;-77
2023/02/20 03:28:43;;;;;;;5.57;2.42;;;;;;;5.06;78.48;97097.38;2079932;28;20393;-76
2023/02/20 03:29:45;;;;;;;5.95;2.97;;;;;;;5.07;78.38;97100.78;2077140;28;20046;-75
2023/02/20 03:31:10;;;;;;;3.90;2.10;;;;;;;5.03;78.31;97083.69;2067736;28;20080;-75
2023/02/20 03:44:25;;;;;;;8.82;2.80;;;;;;;4.64;79.79;97088.25;2089305;28;20037;-73
2023/02/20 03:45:26;;;;;;;8.00;2.65;;;;;;;4.54;80.58;97096.88;2083765;28;20045;-73
2023/02/20 03:46:27;;;;;;;4.93;2.35;;;;;;;4.47;80.77;97087.50;2073262;28;20061;-74
2023/02/20 03:47:30;;;;;;;6.93;2.80;;;;;;;4.42;81.44;97100.38;2074114;28;20037;-74
2023/02/20 03:48:39;;;;;;;9.10;2.40;;;;;;;4.35;81.25;97080.69;2058088;28;20039;-74
2023/02/20 03:49:41;;;;;;;8.73;2.65;;;;;;;4.25;81.05;97082.47;2076474;28;20057;-74
2023/02/20 03:52:12;;;;;;;5.43;2.60;;;;;;;4.30;82.05;97101.28;2085571;28;20052;-74
2023/02/20 03:53:14;;;;;;;5.68;3.22;;;;;;;4.25;81.91;97099.59;2085882;28;20040;-74
2023/02/20 03:54:15;;;;;;;6.82;2.45;;;;;;;4.25;82.26;97102.16;2090650;28;20399;-74
2023/02/20 03:55:18;;;;;;;8.07;3.00;;;;;;;4.29;81.64;97099.59;2082393;28;20393;-74
2023/02/20 03:56:25;;;;;;;5.57;2.47;;;;;;;4.25;81.45;97099.59;2058463;28;20043;-74
2023/02/20 03:57:29;;;;;;;5.93;2.40;;;;;;;4.33;81.89;97108.13;2076318;28;20052;-76
2023/02/20 03:58:30;;;;;;;8.27;2.40;;;;;;;4.37;81.15;97095.25;2082314;28;20152;-75
2023/02/20 04:00:07;;;;;;;5.55;2.28;;;;;;;4.32;81.43;97104.69;2073912;28;20084;-74
2023/02/20 04:01:16;;;;;;;7.55;2.67;;;;;;;4.32;81.35;97099.56;2084200;28;20448;-74
2023/02/20 04:02:24;;;;;;;5.35;2.40;;;;;;;4.23;81.81;97099.63;2082230;28;20053;-74
2023/02/20 04:03:27;;;;;;;4.47;2.42;;;;;;;4.22;82.16;97097.88;2068751;28;20046;-74
2023/02/20 04:04:32;;;;;;;7.05;2.60;;;;;;;4.32;81.48;97109.00;2082874;28;20036;-76
2023/02/20 04:05:36;;;;;;;5.45;2.47;;;;;;;4.30;81.83;97103.00;2082406;28;20057;-74
2023/02/20 04:06:37;;;;;;;9.55;2.65;;;;;;;4.18;81.59;97094.50;2066635;28;20042;-74
2023/02/20 04:07:42;;;;;;;6.28;2.33;;;;;;;4.16;82.32;97103.91;2066119;28;20057;-74
2023/02/20 04:08:46;;;;;;;5.40;2.25;;;;;;;4.23;82.26;97103.91;2082999;28;20536;-75
2023/02/20 04:09:47;;;;;;;7.97;2.88;;;;;;;4.36;81.05;97110.72;2065730;28;20541;-75
2023/02/20 04:10:52;;;;;;;8.98;2.30;;;;;;;4.36;81.47;97115.84;2074283;28;20069;-75
2023/02/20 04:11:58;;;;;;;5.88;2.40;;;;;;;4.41;81.27;97101.22;2090752;28;20516;-75
2023/02/20 04:12:59;;;;;;;6.15;2.35;;;;;;;4.41;81.24;97103.78;2074401;28;20478;-74
2023/02/20 04:14:01;;;;;;;9.05;3.13;;;;;;;4.31;81.25;97090.16;2066106;28;20050;-75
2023/02/20 04:15:02;;;;;;;7.72;2.22;;;;;;;4.19;81.45;97095.34;2073917;28;20042;-74
2023/02/20 04:16:04;;;;;;;7.18;3.20;;;;;;;4.26;81.27;97109.03;2082131;28;20049;-74
2023/02/20 04:17:08;;;;;;;7.65;2.47;;;;;;;4.38;81.00;97096.09;2081909;28;20056;-74
2023/02/20 04:18:10;;;;;;;7.65;2.60;;;;;;;4.25;81.08;97099.59;2090555;28;20060;-74
2023/02/20 04:19:13;;;;;;;9.52;2.97;;;;;;;4.28;81.11;97103.03;2066198;28;20053;-75
2023/02/20 04:20:16;;;;;;;4.82;2.50;;;;;;;4.27;81.52;97106.44;2066079;28;20064;-73
2023/02/20 04:21:54;;;;;;;4.70;2.40;;;;;;;4.14;81.55;97089.34;2077433;28;20041;-74
2023/02/20 04:22:57;;;;;;;8.65;2.65;;;;;;;4.06;82.00;97097.09;2077874;28;20041;-76
2023/02/20 04:24:10;;;;;;;6.75;3.08;;;;;;;4.10;81.89;97096.25;2073332;28;20057;-76
2023/02/20 04:25:24;;;;;;;6.40;2.67;;;;;;;4.14;81.97;97102.22;2068768;28;20538;-76
2023/02/20 04:26:25;;;;;;;6.38;2.80;;;;;;;4.06;82.19;97094.53;2079783;28;20505;-76
2023/02/20 04:27:26;;;;;;;6.15;2.65;;;;;;;3.98;82.49;97098.84;2081868;28;20041;-75
2023/02/20 04:28:30;;;;;;;6.68;2.67;;;;;;;3.96;82.00;97100.59;2090332;28;20519;-75
2023/02/20 04:29:35;;;;;;;8.07;2.50;;;;;;;4.10;82.54;97093.66;2098358;28;20059;-76
2023/02/20 04:30:36;;;;;;;4.93;2.33;;;;;;;4.16;81.64;97097.94;2090775;28;20483;-75
2023/02/20 04:31:37;;;;;;;4.93;2.25;;;;;;;4.14;82.17;97094.50;2089982;28;20056;-76
2023/02/20 04:32:39;;;;;;;10.20;3.00;;;;;;;4.14;81.37;97100.53;2090401;28;20064;-75
2023/02/20 04:33:40;;;;;;;6.05;2.72;;;;;;;3.99;81.83;97087.72;2089480;28;20049;-75
2023/02/20 04:34:49;;;;;;;6.07;2.92;;;;;;;3.97;81.73;97095.44;2098338;28;20044;-75
2023/02/20 04:35:51;;;;;;;6.03;2.80;;;;;;;4.00;81.79;97096.28;2090025;28;20045;-75
2023/02/20 04:37:15;;;;;;;6.10;2.63;;;;;;;3.87;82.61;97098.88;2090224;28;20040;-74
2023/02/20 04:38:17;;;;;;;9.60;2.78;;;;;;;3.87;82.82;97092.91;2076852;28;20060;-74
2023/02/20 04:39:21;;;;;;;4.90;2.50;;;;;;;3.84;82.61;97101.47;2075560;28;20398;-75
2023/02/20 04:40:23;;;;;;;7.60;2.78;;;;;;;3.80;82.94;97094.66;2098244;28;20052;-73
2023/02/20 04:41:24;;;;;;;6.65;2.55;;;;;;;3.66;83.27;97086.97;2072840;28;20355;-74
2023/02/20 04:42:25;;;;;;;7.20;2.80;;;;;;;3.68;83.79;97099.81;2065577;28;20043;-75
2023/02/20 04:43:27;;;;;;;7.75;2.72;;;;;;;3.60;83.70;97093.84;2081855;28;20049;-74
2023/02/20 04:44:31;;;;;;;6.75;2.67;;;;;;;3.60;83.57;97097.25;2089935;28;20040;-75
2023/02/20 04:45:32;;;;;;;9.98;3.05;;;;;;;3.59;83.83;97099.84;2090264;28;20052;-75
2023/02/20 04:46:33;;;;;;;8.95;2.92;;;;;;;3.47;83.79;97100.69;2089986;28;20041;-75
2023/02/20 04:47:35;;;;;;;7.95;2.60;;;;;;;3.52;84.15;97107.53;2098469;28;20037;-75
2023/02/20 04:48:36;;;;;;;5.85;2.97;;;;;;;3.59;83.90;97095.56;2089898;28;20342;-75
2023/02/20 04:49:37;;;;;;;7.30;2.42;;;;;;;3.57;83.67;97106.69;2089991;28;20055;-74
2023/02/20 04:50:41;;;;;;;8.73;2.63;;;;;;;3.45;84.14;97105.00;2090070;28;20041;-75
2023/02/20 04:51:42;;;;;;;7.40;3.20;;;;;;;3.49;84.25;97102.41;2090002;28;20045;-75
2023/02/20 04:52:43;;;;;;;7.60;2.95;;;;;;;3.48;83.96;97110.13;2089954;28;20120;-75
2023/02/20 04:53:44;;;;;;;6.55;2.80;;;;;;;3.48;84.38;97105.84;2089892;28;20032;-74
2023/02/20 04:54:45;;;;;;;6.18;2.80;;;;;;;3.50;84.42;97109.28;2089911;28;20052;-75
2023/02/20 04:55:48;;;;;;;10.30;3.20;;;;;;;3.33;84.38;97103.28;2089966;28;20535;-75
2023/02/20 04:56:53;;;;;;;7.57;3.40;;;;;;;3.28;85.10;97100.72;2098483;28;20048;-75
2023/02/20 04:57:57;;;;;;;8.63;2.55;;;;;;;3.40;84.86;97099.03;2081759;28;20409;-74
2023/02/20 04:58:59;;;;;;;9.18;2.97;;;;;;;3.45;84.46;97102.44;2082220;28;20485;-75
2023/02/20 05:00:00;;;;;;;7.03;2.67;;;;;;;3.48;84.62;97107.56;2089826;28;20516;-75
2023/02/20 05:01:01;;;;;;;5.82;2.78;;;;;;;3.48;83.97;97097.28;2097373;28;20101;-75
2023/02/20 05:02:02;;;;;;;7.78;3.00;;;;;;;3.45;84.16;97105.00;2098103;28;20029;-75
2023/02/20 05:03:03;;;;;;;6.63;3.00;;;;;;;3.44;84.57;97109.25;2098333;28;20028;-74
2023/02/20 05:04:04;;;;;;;7.13;3.28;;;;;;;3.41;84.38;97101.56;2098992;28;20342;-75
2023/02/20 05:05:06;;;;;;;5.43;3.10;;;;;;;3.50;83.96;97110.97;2098015;28;20037;-74
2023/02/20 05:06:07;;;;;;;9.50;3.00;;;;;;;3.46;83.95;97110.13;2098058;28;20507;-74
2023/02/20 05:07:08;;;;;;;5.90;2.60;;;;;;;3.44;84.10;97116.13;2098793;28;20028;-75
2023/02/20 05:08:09;;;;;;;4.68;2.50;;;;;;;3.39;84.72;97120.41;2098651;28;20060;-75
2023/02/20 05:09:10;;;;;;;7.57;2.88;;;;;;;3.34;84.78;97119.53;2098630;28;20037;-75
2023/02/20 05:10:15;;;;;;;5.57;2.75;;;;;;;3.33;84.70;97118.69;2098785;28;20040;-75
2023/02/20 05:11:16;;;;;;;8.02;3.28;;;;;;;3.24;85.17;97126.41;2098631;28;20044;-75
2023/02/20 05:12:17;;;;;;;8.85;3.00;;;;;;;3.20;85.30;97122.97;2098215;28;20040;-75
2023/02/20 05:13:18;;;;;;;6.85;3.17;;;;;;;3.08;85.40;97125.56;2098119;28;20096;-74
2023/02/20 05:14:20;;;;;;;6.13;2.70;;;;;;;3.15;85.63;97127.25;2097508;28;20431;-73
2023/02/20 05:15:21;;;;;;;10.57;3.17;;;;;;;3.22;85.32;97126.41;2089737;28;20032;-74
2023/02/20 05:16:22;;;;;;;6.88;2.95;;;;;;;3.18;85.46;97124.72;2089887;28;20033;-74
2023/02/20 05:17:23;;;;;;;5.80;3.20;;;;;;;3.22;85.49;97121.28;2097891;28;20048;-74
2023/02/20 05:18:25;;;;;;;6.07;3.05;;;;;;;3.14;85.54;97109.31;2098491;28;20028;-74
2023/02/20 05:19:26;;;;;;;6.88;3.10;;;;;;;3.24;85.41;97119.56;2098821;28;20048;-75
2023/02/20 05:23:06;;;;;;;7.72;2.90;;;;;;;3.23;85.41;97122.97;2089187;28;20507;-74
2023/02/20 05:24:07;;;;;;;7.88;3.17;;;;;;;3.17;85.29;97122.13;2089518;28;20056;-74
2023/02/20 05:25:09;;;;;;;10.70;3.05;;;;;;;3.17;85.04;97111.88;2107087;28;20047;-74
2023/02/20 05:26:10;;;;;;;6.68;2.90;;;;;;;3.21;85.17;97127.28;2098008;28;20515;-74
2023/02/20 05:27:13;;;;;;;8.65;2.85;;;;;;;3.23;85.06;97129.81;2097968;28;20045;-74